Time;durP1;ratioP1;P1;durP2;ratioP2;P2;SDS_P1;SDS_P2;PMS_P1;PMS_P2;Temp;Humidity;BMP_temperature;BMP_pressure;BME280_temperature;BME280_humidity;BME280_pressure;Samples;Min_cycle;Max_cycle;Signal;HPM_P1;HPM_P2
2022/09/14 00:01:38;;;;;;;11.00;9.00;;;;;;;15.10;78.11;97117.29;108664;1280;22545;-92
2022/09/14 00:04:11;;;;;;;;;;;;;;;15.10;78.42;97111.63;108563;1278;22547;-91
2022/09/14 00:06:39;;;;;;;10.30;9.20;;;;;;;15.08;78.44;97110.64;108884;1280;22653;-90
2022/09/14 00:09:12;;;;;;;10.10;8.40;;;;;;;15.07;78.33;97108.38;109020;1280;22643;-90
2022/09/14 00:11:40;;;;;;;11.30;8.70;;;;;;;15.07;78.18;97109.08;108840;1280;22675;-90
2022/09/14 00:14:08;;;;;;;10.20;8.90;;;;;;;15.09;78.05;97105.86;108571;1278;22872;-93
2022/09/14 00:16:39;;;;;;;8.60;7.50;;;;;;;15.09;78.69;97107.81;108458;1279;23395;-90
2022/09/14 00:19:17;;;;;;;8.00;7.20;;;;;;;15.08;78.57;97110.89;108633;1280;22566;-92
2022/09/14 00:21:51;;;;;;;9.00;7.80;;;;;;;15.08;78.71;97101.80;108366;1279;22548;-90
2022/09/14 00:24:19;;;;;;;8.90;8.00;;;;;;;15.05;78.68;97104.69;108723;1280;22529;-92
2022/09/14 00:26:48;;;;;;;10.00;8.20;;;;;;;15.04;78.77;97102.55;108449;1280;22720;-93
2022/09/14 00:29:15;;;;;;;10.50;7.70;;;;;;;15.02;78.75;97098.38;108668;1280;23151;-88
2022/09/14 00:31:44;;;;;;;9.50;8.00;;;;;;;15.02;79.09;97096.08;108902;1280;22534;-89
2022/09/14 00:34:15;;;;;;;13.70;8.70;;;;;;;14.99;78.90;97097.46;108839;1279;22570;-90
2022/09/14 00:36:46;;;;;;;10.60;8.70;;;;;;;14.97;78.88;97097.79;108973;1278;22490;-91
2022/09/14 00:39:16;;;;;;;10.50;9.60;;;;;;;14.94;78.99;97096.34;108935;1279;22727;-93
2022/09/14 00:41:46;;;;;;;10.50;9.50;;;;;;;14.94;78.96;97095.86;108561;1280;22631;-90
2022/09/14 00:44:14;;;;;;;12.30;9.70;;;;;;;14.97;79.17;97095.39;109280;1280;22513;-86
2022/09/14 00:47:32;;;;;;;10.20;8.80;;;;;;;15.01;79.08;97092.95;109640;1278;22377;-86
2022/09/14 00:50:02;;;;;;;10.90;7.80;;;;;;;15.03;78.99;97088.94;109111;1279;22921;-91
2022/09/14 00:52:34;;;;;;;9.10;7.90;;;;;;;15.03;78.99;97087.02;109094;1278;22522;-88
2022/09/14 00:55:07;;;;;;;13.00;8.10;;;;;;;15.02;79.13;97083.36;108930;1280;23205;-88
2022/09/14 00:57:39;;;;;;;9.00;7.90;;;;;;;15.03;79.11;97083.67;108961;1280;22571;-91
2022/09/14 01:00:09;;;;;;;9.90;8.90;;;;;;;15.04;79.02;97087.77;108929;1278;22823;-91
2022/09/14 01:02:38;;;;;;;12.20;8.80;;;;;;;15.08;78.95;97087.56;108872;1280;25325;-93
2022/09/14 01:05:10;;;;;;;11.40;8.80;;;;;;;15.13;79.10;97091.17;109009;1279;22536;-88
2022/09/14 01:08:03;;;;;;;10.60;8.70;;;;;;;15.17;79.13;97088.01;109050;1279;22483;-91
2022/09/14 01:13:39;;;;;;;9.90;8.10;;;;;;;15.16;79.07;97089.48;108164;1284;23845;-91
2022/09/14 01:16:21;;;;;;;12.00;8.80;;;;;;;15.14;79.02;97084.38;107890;1284;22568;-91
2022/09/14 01:18:56;;;;;;;10.20;8.60;;;;;;;15.15;78.99;97079.69;108278;1284;22568;-91
2022/09/14 01:21:27;;;;;;;11.80;8.90;;;;;;;15.17;78.96;97074.91;108389;1284;23121;-92
2022/09/14 01:24:07;;;;;;;10.60;9.00;;;;;;;15.20;79.13;97075.05;108620;1284;23091;-90
2022/09/14 01:26:44;;;;;;;16.50;15.00;;;;;;;15.20;79.00;97075.00;108552;1284;23088;-92
2022/09/14 01:29:15;;;;;;;15.30;13.80;;;;;;;15.16;78.93;97074.11;108394;1284;22721;-91
2022/09/14 01:32:08;;;;;;;18.40;16.70;;;;;;;15.12;79.06;97076.71;108746;1284;24263;-94
2022/09/14 01:37:47;;;;;;;11.00;9.40;;;;;;;15.03;79.00;97075.56;108172;1282;22577;-93
2022/09/14 01:40:22;;;;;;;15.10;11.90;;;;;;;15.01;78.95;97069.15;108653;1282;23991;-92
2022/09/14 01:43:00;;;;;;;14.10;12.70;;;;;;;14.98;79.12;97063.65;108273;1283;22550;-92
2022/09/14 01:45:31;;;;;;;16.70;14.80;;;;;;;14.94;79.09;97064.40;108424;1282;23021;-95
2022/09/14 01:48:03;;;;;;;17.10;15.30;;;;;;;14.87;79.19;97062.27;108674;1282;23981;-94
2022/09/14 01:50:38;;;;;;;14.40;13.00;;;;;;;14.79;79.34;97055.70;108869;1281;22654;-92
2022/09/14 01:53:16;;;;;;;14.30;11.70;;;;;;;14.76;79.26;97058.50;108836;1282;22577;-92
2022/09/14 01:55:49;;;;;;;13.60;12.10;;;;;;;14.71;79.29;97055.27;108650;1282;22604;-92
2022/09/14 02:01:23;;;;;;;13.80;11.50;;;;;;;14.65;79.32;97052.45;108733;1281;23956;-93
2022/09/14 02:03:58;;;;;;;17.40;15.70;;;;;;;14.59;79.61;97049.58;108685;1281;22525;-91
2022/09/14 02:06:33;;;;;;;16.10;14.70;;;;;;;14.57;79.88;97045.89;108634;1281;22589;-92
2022/09/14 02:09:03;;;;;;;12.60;11.40;;;;;;;14.58;80.13;97043.82;108597;1280;22571;-91
2022/09/14 02:11:31;;;;;;;14.40;11.50;;;;;;;14.59;80.06;97041.29;108701;1281;22579;-90
2022/09/14 02:13:59;;;;;;;13.90;12.40;;;;;;;14.60;80.15;97036.73;108355;1281;22548;-92
2022/09/14 02:16:27;;;;;;;13.00;11.50;;;;;;;14.61;80.12;97044.20;108426;1281;22547;-92
2022/09/14 02:18:57;;;;;;;14.40;13.00;;;;;;;14.61;80.28;97044.45;108430;1281;22536;-89
2022/09/14 02:21:28;;;;;;;17.10;15.20;;;;;;;14.59;80.33;97040.67;108264;1281;23954;-89
2022/09/14 02:23:58;;;;;;;13.00;11.80;;;;;;;14.56;80.33;97042.00;108332;1281;24133;-91
2022/09/14 02:26:27;;;;;;;18.60;13.00;;;;;;;14.53;80.12;97040.67;107864;1281;23779;-88
2022/09/14 02:28:56;;;;;;;14.10;12.40;;;;;;;14.52;80.36;97036.55;108467;1281;22660;-92
2022/09/14 02:40:13;;;;;;;13.00;10.20;;;;;;;14.35;80.30;97024.80;109529;1280;22412;-82
2022/09/14 02:43:01;;;;;;;16.60;14.90;;;;;;;14.26;80.56;97024.77;108782;1281;25527;-90
2022/09/14 02:45:44;;;;;;;16.30;14.80;;;;;;;14.21;80.35;97018.23;108573;1281;22541;-94
2022/09/14 02:48:16;;;;;;;16.00;14.40;;;;;;;14.21;80.73;97023.95;108567;1281;22639;-94
2022/09/14 02:53:45;;;;;;;14.30;13.00;;;;;;;14.01;81.00;97023.14;108036;1282;24292;-94
2022/09/14 02:56:13;;;;;;;;;;;;;;;13.88;81.12;97015.77;107823;1282;22581;-93
2022/09/14 02:58:43;;;;;;;16.30;14.80;;;;;;;13.81;81.22;97010.85;107676;1282;24082;-92
2022/09/14 03:01:23;;;;;;;19.40;13.40;;;;;;;13.75;81.32;97005.17;107365;1282;22566;-91
2022/09/14 03:03:51;;;;;;;13.60;10.30;;;;;;;13.72;81.38;97007.52;107436;1282;22569;-92
2022/09/14 03:06:19;;;;;;;12.90;11.50;;;;;;;13.69;81.33;97003.67;107503;1284;22568;-93
2022/09/14 03:08:48;;;;;;;12.50;11.00;;;;;;;13.63;81.71;97004.45;107743;1281;22556;-89
2022/09/14 03:11:16;;;;;;;14.40;13.10;;;;;;;13.55;82.11;97007.59;107596;1282;23938;-92
2022/09/14 03:13:44;;;;;;;12.10;10.60;;;;;;;13.42;82.05;97005.33;107335;1282;22586;-92
2022/09/14 03:16:17;;;;;;;11.00;9.90;;;;;;;13.34;82.15;97002.29;107296;1284;22586;-91
2022/09/14 03:18:45;;;;;;;11.30;9.50;;;;;;;13.27;82.22;97005.85;107363;1284;22597;-93
2022/09/14 03:21:16;;;;;;;11.70;10.50;;;;;;;13.22;82.36;97007.53;107333;1284;22615;-92
2022/09/14 03:23:48;;;;;;;13.90;12.20;;;;;;;13.17;82.62;97004.59;107305;1284;25925;-91
2022/09/14 03:26:20;;;;;;;12.70;11.40;;;;;;;13.15;82.71;97005.08;107083;1284;22562;-93
2022/09/14 03:28:54;;;;;;;14.00;12.10;;;;;;;13.12;82.84;97004.04;106752;1284;22727;-92
2022/09/14 03:31:23;;;;;;;13.40;10.90;;;;;;;13.11;82.75;96998.98;107154;1284;22636;-88
2022/09/14 03:33:57;;;;;;;11.10;10.00;;;;;;;13.08;83.05;96998.59;107411;1284;22551;-93
2022/09/14 03:36:27;;;;;;;12.20;10.90;;;;;;;13.08;82.98;96999.44;106537;1284;22517;-91
2022/09/14 03:39:01;;;;;;;13.90;9.90;;;;;;;13.06;83.03;96996.98;106666;1284;22777;-90
2022/09/14 03:41:29;;;;;;;13.30;11.80;;;;;;;13.00;83.07;96994.92;106723;1284;22541;-91
2022/09/14 03:43:57;;;;;;;12.10;11.00;;;;;;;12.96;83.05;96993.57;106650;1284;23229;-91
2022/09/14 03:46:25;;;;;;;11.20;10.10;;;;;;;12.92;83.51;96988.70;106800;1284;25351;-90
2022/09/14 03:48:54;;;;;;;11.60;10.40;;;;;;;12.89;83.32;96989.77;106573;1284;22635;-92
2022/09/14 03:51:22;;;;;;;12.50;9.90;;;;;;;12.88;83.62;96985.70;106870;1284;22544;-90
2022/09/14 03:53:51;;;;;;;10.10;9.00;;;;;;;12.85;83.75;96987.17;106936;1282;24012;-89
2022/09/14 03:56:24;;;;;;;10.50;8.90;;;;;;;12.72;85.24;96995.32;106927;1282;22697;-92
2022/09/14 03:58:52;;;;;;;12.00;10.80;;;;;;;12.57;85.99;96995.55;106864;1282;22667;-91
2022/09/14 04:01:21;;;;;;;10.60;9.50;;;;;;;12.45;86.30;96992.13;106830;1282;25424;-92
2022/09/14 04:03:51;;;;;;;11.20;9.50;;;;;;;12.41;85.83;96995.38;106713;1282;22570;-93
2022/09/14 04:06:19;;;;;;;10.10;9.10;;;;;;;12.39;85.31;96997.95;106974;1282;22541;-93
2022/09/14 04:08:47;;;;;;;11.30;10.10;;;;;;;12.35;86.40;96998.56;107166;1282;22559;-89
2022/09/14 04:11:20;;;;;;;10.80;9.50;;;;;;;12.25;86.88;97002.55;106884;1282;22560;-92
2022/09/14 04:13:50;;;;;;;11.70;10.60;;;;;;;12.17;86.84;97011.89;106456;1282;22507;-91
2022/09/14 04:16:19;;;;;;;10.90;9.70;;;;;;;12.10;87.28;97012.58;106660;1282;22564;-91
2022/09/14 04:18:48;;;;;;;13.10;11.70;;;;;;;12.05;86.99;97008.54;106497;1282;25362;-91
2022/09/14 04:21:20;;;;;;;12.70;11.50;;;;;;;12.09;86.91;97004.14;106371;1284;23292;-92
2022/09/14 04:23:53;;;;;;;15.60;14.00;;;;;;;12.14;86.84;96993.73;106618;1282;22630;-92
2022/09/14 04:26:42;;;;;;;19.10;17.30;;;;;;;12.23;86.86;96998.68;106463;1282;25852;-91
2022/09/14 04:29:11;;;;;;;16.30;14.40;;;;;;;12.30;87.05;96988.21;106604;1282;23278;-88
2022/09/14 04:31:39;;;;;;;15.40;10.70;;;;;;;12.34;87.06;96994.59;107554;1282;22693;-85
2022/09/14 04:34:10;;;;;;;12.80;11.50;;;;;;;12.36;87.10;96994.45;109273;1282;22522;-87
2022/09/14 04:36:38;;;;;;;13.90;12.60;;;;;;;12.32;87.60;96991.14;108166;1282;22557;-91
2022/09/14 04:39:06;;;;;;;15.40;13.50;;;;;;;12.37;87.20;96996.49;106683;1282;22840;-90
2022/09/14 04:41:33;;;;;;;13.40;12.00;;;;;;;12.44;87.36;96997.13;107017;1282;22567;-92
2022/09/14 04:44:01;;;;;;;14.30;13.00;;;;;;;12.46;87.24;96999.96;106975;1282;25574;-92
2022/09/14 04:46:34;;;;;;;13.40;12.00;;;;;;;12.46;87.28;97003.59;106876;1282;22579;-91
2022/09/14 04:49:02;;;;;;;15.90;13.90;;;;;;;12.37;87.43;97005.52;106627;1282;22665;-89
2022/09/14 04:51:32;;;;;;;19.80;17.90;;;;;;;12.34;87.41;97008.64;106886;1282;22775;-90
2022/09/14 04:54:04;;;;;;;15.00;13.40;;;;;;;12.38;87.59;97005.09;106660;1282;25296;-92
2022/09/14 04:56:37;;;;;;;13.00;10.80;;;;;;;12.44;87.62;97009.17;106686;1282;22644;-90
2022/09/14 04:59:06;;;;;;;13.30;12.10;;;;;;;12.43;89.11;97006.10;106779;1282;22807;-92
2022/09/14 05:01:41;;;;;;;16.40;14.80;;;;;;;12.36;89.02;96999.75;106976;1282;22581;-92
2022/09/14 05:04:11;;;;;;;15.10;13.60;;;;;;;12.36;88.74;96995.61;106663;1283;22587;-91
2022/09/14 05:06:43;;;;;;;12.40;11.20;;;;;;;12.43;88.44;96998.70;106672;1282;22546;-92
2022/09/14 05:09:18;;;;;;;14.00;10.90;;;;;;;12.43;88.61;96994.62;106848;1282;25936;-91
2022/09/14 05:11:48;;;;;;;14.90;11.90;;;;;;;12.44;88.92;96993.48;107468;1283;22682;-89
2022/09/14 05:14:17;;;;;;;14.10;12.70;;;;;;;12.48;88.90;96991.84;107582;1282;22558;-87
2022/09/14 05:16:46;;;;;;;12.20;10.90;;;;;;;12.58;88.97;96991.50;107979;1282;22757;-91
2022/09/14 05:19:19;;;;;;;13.20;11.70;;;;;;;12.63;89.01;96995.00;108173;1282;22499;-90
2022/09/14 05:21:47;;;;;;;14.40;11.80;;;;;;;12.63;88.79;96996.78;108238;1282;22558;-88
2022/09/14 05:24:17;;;;;;;15.30;11.70;;;;;;;12.63;89.46;96995.38;108182;1282;22543;-91
2022/09/14 05:26:46;;;;;;;13.10;11.80;;;;;;;12.62;89.71;96994.41;107286;1282;22780;-92
2022/09/14 05:29:17;;;;;;;13.30;11.90;;;;;;;12.62;89.49;96996.95;106524;1282;22562;-92
2022/09/14 05:31:45;;;;;;;13.20;10.40;;;;;;;12.65;89.82;96995.23;106512;1282;22501;-94
2022/09/14 05:34:16;;;;;;;11.30;10.20;;;;;;;12.64;90.42;96998.83;106528;1282;24299;-92
2022/09/14 05:36:45;;;;;;;13.20;11.10;;;;;;;12.66;89.99;96996.79;106569;1282;23325;-92
2022/09/14 05:39:13;;;;;;;14.50;13.10;;;;;;;12.74;89.97;96995.38;106360;1284;22566;-92
2022/09/14 05:41:48;;;;;;;14.90;13.50;;;;;;;12.86;90.29;96992.14;106631;1282;22546;-87
2022/09/14 05:44:17;;;;;;;15.10;13.60;;;;;;;12.99;90.36;96990.86;106488;1282;22584;-92
2022/09/14 05:46:45;;;;;;;14.80;13.10;;;;;;;13.13;90.51;96996.27;106668;1282;22617;-91
2022/09/14 05:49:13;;;;;;;12.90;11.20;;;;;;;13.28;90.72;96994.83;106362;1282;24273;-93
2022/09/14 05:51:41;;;;;;;14.80;12.60;;;;;;;13.42;90.70;96983.70;106023;1284;24250;-93
2022/09/14 05:54:10;;;;;;;13.40;11.70;;;;;;;13.62;91.20;96990.73;106224;1282;22611;-91
2022/09/14 05:56:39;;;;;;;14.70;12.90;;;;;;;13.84;91.34;96996.48;106115;1284;24346;-93
2022/09/14 05:59:07;;;;;;;14.30;12.50;;;;;;;14.05;91.04;96997.80;106224;1282;22615;-92
2022/09/14 06:01:35;;;;;;;15.40;13.20;;;;;;;14.21;90.94;96996.23;106325;1282;24214;-93
2022/09/14 06:04:03;;;;;;;27.30;17.70;;;;;;;14.36;90.78;96995.10;106285;1282;23885;-91
2022/09/14 06:06:32;;;;;;;19.90;15.40;;;;;;;14.51;90.62;96992.20;106417;1282;22639;-91
2022/09/14 06:09:00;;;;;;;22.70;19.60;;;;;;;14.65;90.65;96992.58;106569;1283;22607;-93
2022/09/14 06:11:32;;;;;;;11.80;10.10;;;;;;;14.77;90.23;96990.34;106386;1282;22657;-92
2022/09/14 06:14:01;;;;;;;16.10;11.10;;;;;;;14.88;89.29;96991.00;106190;1283;22552;-92
2022/09/14 06:16:29;;;;;;;10.70;9.50;;;;;;;14.99;88.97;96993.67;106153;1283;22683;-92
2022/09/14 06:18:59;;;;;;;17.40;9.20;;;;;;;15.13;88.47;96993.02;106391;1283;22551;-90
2022/09/14 06:21:34;;;;;;;11.80;8.60;;;;;;;15.28;88.19;96995.70;106289;1283;23138;-88
2022/09/14 06:24:02;;;;;;;12.00;9.20;;;;;;;15.42;87.75;97000.30;106613;1283;22562;-90
2022/09/14 06:26:40;;;;;;;13.60;9.00;;;;;;;15.51;86.71;96999.96;106636;1282;24268;-92
2022/09/14 06:29:08;;;;;;;13.90;9.00;;;;;;;15.56;85.42;97000.23;109220;1281;22521;-86
2022/09/14 06:31:35;;;;;;;12.80;8.50;;;;;;;15.59;85.46;96997.36;109017;1282;22545;-91
2022/09/14 06:34:04;;;;;;;10.90;8.60;;;;;;;15.64;85.18;97000.91;106910;1284;22556;-90
2022/09/14 06:36:31;;;;;;;10.40;8.30;;;;;;;15.74;85.22;97008.27;106613;1282;22553;-92
2022/09/14 06:38:59;;;;;;;12.50;9.30;;;;;;;15.82;84.82;97007.29;106612;1282;24257;-92
2022/09/14 06:41:29;;;;;;;13.20;8.90;;;;;;;15.88;84.57;97011.85;106628;1284;25319;-90
2022/09/14 06:44:00;;;;;;;10.20;8.80;;;;;;;15.92;83.96;97017.68;106093;1284;24203;-89
2022/09/14 06:46:31;;;;;;;11.00;8.20;;;;;;;15.99;84.00;97021.10;106495;1283;22755;-92
2022/09/14 06:49:08;;;;;;;13.10;9.50;;;;;;;16.11;84.18;97022.89;106492;1282;22603;-91
2022/09/14 06:51:37;;;;;;;13.60;9.60;;;;;;;16.23;83.13;97026.25;106894;1284;22575;-92
2022/09/14 06:54:06;;;;;;;12.90;10.40;;;;;;;16.28;82.15;97027.75;106751;1282;24376;-88
2022/09/14 06:56:37;;;;;;;27.00;12.70;;;;;;;16.32;82.58;97028.00;106667;1282;23348;-92
2022/09/14 06:59:07;;;;;;;18.90;11.20;;;;;;;16.43;83.29;97019.59;106542;1284;22582;-87
2022/09/14 07:01:36;;;;;;;14.90;11.10;;;;;;;16.58;83.30;97020.83;106715;1283;22588;-91
2022/09/14 07:04:05;;;;;;;11.90;9.60;;;;;;;16.70;82.89;97025.02;106568;1282;22654;-91
2022/09/14 07:06:40;;;;;;;10.90;9.80;;;;;;;16.78;82.42;97023.02;106767;1283;22582;-91
2022/09/14 07:09:11;;;;;;;14.00;9.40;;;;;;;16.87;82.69;97020.52;107449;1282;22564;-92
2022/09/14 07:11:40;;;;;;;15.50;8.50;;;;;;;16.96;82.28;97015.41;107619;1282;22542;-92
2022/09/14 07:14:10;;;;;;;11.40;7.30;;;;;;;17.05;81.65;97019.05;107101;1284;22566;-92
2022/09/14 07:16:39;;;;;;;12.00;8.30;;;;;;;17.12;81.05;97016.39;107158;1282;22493;-92
2022/09/14 07:19:10;;;;;;;17.80;8.90;;;;;;;17.19;81.03;97010.52;107525;1282;22599;-91
2022/09/14 07:21:39;;;;;;;13.20;10.50;;;;;;;17.26;80.62;97011.34;107627;1284;23952;-92
2022/09/14 07:24:07;;;;;;;10.30;8.00;;;;;;;17.20;80.17;96987.51;107675;1282;22540;-91
2022/09/14 07:26:41;;;;;;;10.80;9.10;;;;;;;17.37;79.84;97006.08;107040;1284;24508;-90
2022/09/14 07:29:13;;;;;;;15.50;9.00;;;;;;;17.43;80.33;97002.98;106586;1283;25332;-93
2022/09/14 07:31:50;;;;;;;11.20;8.30;;;;;;;17.51;79.72;97003.33;106688;1283;22618;-93
2022/09/14 07:34:19;;;;;;;11.70;8.60;;;;;;;17.59;79.48;97001.34;107104;1284;25360;-91
2022/09/14 07:36:47;;;;;;;15.90;9.60;;;;;;;17.60;79.24;97001.20;106780;1282;25202;-94
2022/09/14 07:39:21;;;;;;;17.10;10.90;;;;;;;17.61;78.79;97006.44;107277;1282;22648;-90
2022/09/14 07:41:49;;;;;;;;;;;;;;;17.62;79.10;97008.48;107466;1283;23304;-87
2022/09/14 07:44:17;;;;;;;12.40;8.70;;;;;;;17.66;79.58;97004.48;107570;1283;25334;-92
2022/09/14 07:46:46;;;;;;;13.20;7.00;;;;;;;17.71;79.11;97003.16;107444;1282;25431;-90
2022/09/14 07:49:15;;;;;;;11.60;7.40;;;;;;;17.80;78.22;96999.11;106940;1284;22597;-91
2022/09/14 07:51:47;;;;;;;10.10;7.30;;;;;;;17.81;77.91;97003.33;106997;1282;23332;-91
2022/09/14 07:54:17;;;;;;;12.40;9.30;;;;;;;17.83;77.55;97007.88;107300;1282;22562;-90
2022/09/14 07:56:45;;;;;;;11.80;9.00;;;;;;;17.83;77.41;97008.04;107124;1282;25403;-88
2022/09/14 07:59:14;;;;;;;12.80;9.20;;;;;;;17.84;77.20;97008.81;106980;1282;22549;-92
2022/09/14 08:02:09;;;;;;;11.70;8.20;;;;;;;17.90;78.13;96998.23;107239;1282;22615;-93
2022/09/14 08:04:38;;;;;;;11.80;7.00;;;;;;;18.03;78.22;97002.46;107167;1282;22993;-91
2022/09/14 08:07:06;;;;;;;13.10;7.50;;;;;;;18.13;77.93;97000.18;107010;1283;22748;-92
2022/09/14 08:09:34;;;;;;;10.70;7.00;;;;;;;18.23;77.64;97001.08;107138;1282;22600;-92
2022/09/14 08:12:04;;;;;;;13.00;7.70;;;;;;;18.29;76.45;97001.61;106794;1282;22562;-88
2022/09/14 08:14:32;;;;;;;9.80;6.90;;;;;;;18.28;76.47;96995.55;106760;1282;22551;-91
2022/09/14 08:17:01;;;;;;;12.20;7.30;;;;;;;18.34;76.24;97003.32;106837;1282;22568;-90
2022/09/14 08:19:29;;;;;;;9.50;7.10;;;;;;;18.33;76.01;97000.20;108706;1281;22619;-87
2022/09/14 08:21:57;;;;;;;10.80;6.70;;;;;;;18.38;76.00;96999.33;109260;1269;22808;-88
2022/09/14 08:24:25;;;;;;;10.10;7.90;;;;;;;18.47;76.45;96993.27;108001;1279;22701;-90
2022/09/14 08:26:54;;;;;;;11.30;7.50;;;;;;;18.59;76.18;96990.67;107743;1279;22552;-90
2022/09/14 08:29:22;;;;;;;10.40;7.40;;;;;;;18.69;76.14;96991.95;107187;1280;22557;-89
2022/09/14 08:31:50;;;;;;;8.60;6.50;;;;;;;18.80;75.54;96996.06;107869;1280;22594;-92
2022/09/14 08:34:19;;;;;;;10.30;6.60;;;;;;;18.83;75.01;96996.10;107976;1280;24326;-91
2022/09/14 08:36:47;;;;;;;8.10;6.40;;;;;;;18.89;74.37;97003.09;107923;1279;22601;-91
2022/09/14 08:39:15;;;;;;;14.10;6.90;;;;;;;18.89;73.25;97007.70;108496;1279;22667;-91
2022/09/14 08:42:05;;;;;;;10.00;6.60;;;;;;;18.87;72.91;97011.11;108379;1279;23295;-90
2022/09/14 08:44:39;;;;;;;9.50;6.80;;;;;;;18.87;72.70;97010.17;108524;1279;23061;-88
2022/09/14 08:47:15;;;;;;;9.60;7.20;;;;;;;18.90;72.78;97010.83;108787;1279;24206;-92
2022/09/14 08:52:46;;;;;;;12.60;6.80;;;;;;;18.96;72.31;97008.78;108337;1282;22563;-89
2022/09/14 08:58:24;;;;;;;9.90;6.40;;;;;;;19.07;71.97;97008.80;108464;1279;22668;-88
2022/09/14 09:04:00;;;;;;;7.10;6.20;;;;;;;19.22;71.10;97006.37;108028;1281;22622;-89
2022/09/14 09:06:53;;;;;;;9.30;6.40;;;;;;;19.35;71.24;97003.98;108073;1282;24031;-92
2022/09/14 09:09:31;;;;;;;7.50;6.40;;;;;;;19.52;71.50;96998.33;108047;1282;22562;-93
2022/09/14 09:12:00;;;;;;;9.40;5.90;;;;;;;19.60;69.39;96995.81;108405;1281;22580;-92
2022/09/14 09:14:43;;;;;;;8.00;6.00;;;;;;;19.52;68.42;96998.34;108007;1281;25368;-90
2022/09/14 09:17:19;;;;;;;7.90;6.50;;;;;;;19.46;68.51;96994.15;107721;1281;22580;-92
2022/09/14 09:19:56;;;;;;;10.60;6.50;;;;;;;19.49;68.72;96999.33;108034;1281;25399;-91
2022/09/14 09:22:28;;;;;;;11.00;6.70;;;;;;;19.59;68.80;96994.40;108571;1281;22667;-90
2022/09/14 09:24:58;;;;;;;10.40;6.30;;;;;;;19.64;68.02;96996.33;108571;1281;22889;-92
2022/09/14 09:27:28;;;;;;;9.40;5.90;;;;;;;19.61;68.02;96994.10;107937;1282;23878;-91
2022/09/14 09:29:57;;;;;;;11.90;6.40;;;;;;;19.60;68.58;96993.46;108197;1281;22568;-93
2022/09/14 09:32:26;;;;;;;10.30;6.50;;;;;;;19.74;69.03;96990.63;108172;1281;22541;-91
2022/09/14 09:35:27;;;;;;;12.60;6.20;;;;;;;19.95;68.22;96993.95;109005;1272;22617;-91
2022/09/14 09:38:01;;;;;;;9.80;6.10;;;;;;;20.05;68.14;96991.12;109237;1279;22903;-91
2022/09/14 09:40:39;;;;;;;8.70;6.20;;;;;;;20.13;67.62;96990.84;108976;1280;22548;-92
2022/09/14 09:43:18;;;;;;;13.40;6.20;;;;;;;20.12;66.74;96985.91;108680;1281;24078;-93
2022/09/14 09:46:06;;;;;;;8.50;5.90;;;;;;;20.18;67.17;96987.35;108974;1279;22575;-93
2022/09/14 09:48:41;;;;;;;9.40;5.90;;;;;;;20.21;66.46;96986.42;109132;1280;23889;-90
2022/09/14 09:56:54;;;;;;;31.60;15.50;;;;;;;20.06;67.12;96992.69;108485;1280;22667;-89
2022/09/14 09:59:28;;;;;;;15.70;8.50;;;;;;;20.12;66.55;96989.04;109087;1281;22525;-92
2022/09/14 10:05:07;;;;;;;7.80;5.30;;;;;;;19.98;66.58;96963.58;108796;1281;22581;-89
2022/09/14 10:10:33;;;;;;;8.40;4.80;;;;;;;20.17;65.74;96979.37;109360;1268;22517;-86
2022/09/14 10:13:04;;;;;;;6.50;4.80;;;;;;;20.17;65.55;96979.92;109000;1281;23257;-90
2022/09/14 10:15:35;;;;;;;9.30;5.00;;;;;;;20.20;65.24;96975.94;108609;1282;22534;-85
2022/09/14 10:18:12;;;;;;;9.40;4.70;;;;;;;20.19;65.45;96978.21;109259;1270;25294;-90
2022/09/14 10:20:43;;;;;;;9.90;5.30;;;;;;;20.16;65.38;96976.33;109338;1277;22545;-90
2022/09/14 10:23:17;;;;;;;7.80;4.70;;;;;;;20.10;65.12;96969.81;109306;1278;23112;-90
2022/09/14 10:25:47;;;;;;;8.00;5.50;;;;;;;20.08;65.83;96973.00;109080;1277;22695;-91
2022/09/14 10:28:32;;;;;;;9.30;6.10;;;;;;;20.15;65.93;96972.96;109017;1278;22552;-92
2022/09/14 10:31:06;;;;;;;7.70;5.90;;;;;;;20.21;65.99;96977.04;109212;1280;23514;-88
2022/09/14 10:33:59;;;;;;;8.90;5.50;;;;;;;20.15;65.78;96967.55;109481;1268;22505;31
2022/09/14 10:37:04;;;;;;;8.70;5.30;;;;;;;19.95;66.24;96965.76;109438;1268;22537;31
2022/09/14 10:39:48;;;;;;;10.30;5.10;;;;;;;19.78;66.72;96970.41;109471;1270;22506;-85
2022/09/14 10:42:39;;;;;;;12.00;5.20;;;;;;;19.70;67.43;96966.31;109439;1269;22644;31
2022/09/14 10:45:18;;;;;;;9.40;5.30;;;;;;;19.70;68.19;96964.90;109316;1281;22630;-88
2022/09/14 10:48:16;;;;;;;9.30;5.50;;;;;;;19.75;68.36;96961.03;109544;1268;22750;-81
2022/09/14 10:53:33;;;;;;;10.20;5.60;;;;;;;19.79;68.56;96959.73;109564;1281;22489;-81
2022/09/14 10:56:18;;;;;;;8.70;5.60;;;;;;;19.85;68.57;96958.27;109528;1270;22966;-93
2022/09/14 10:58:52;;;;;;;11.80;5.40;;;;;;;19.85;68.70;96962.41;109486;1269;22204;-81
2022/09/14 11:01:47;;;;;;;5.80;4.20;;;;;;;19.81;68.88;96966.38;109574;1268;22588;-81
2022/09/14 11:04:33;;;;;;;5.70;4.00;;;;;;;19.71;69.33;96963.59;109681;1278;22584;-83
2022/09/14 11:07:12;;;;;;;5.60;4.40;;;;;;;19.54;69.61;96959.55;109371;1270;22538;-81
2022/09/14 11:16:07;;;;;;;9.40;4.80;;;;;;;19.39;70.73;96957.27;109546;1268;22544;-84
2022/09/14 11:19:01;;;;;;;7.60;4.60;;;;;;;19.37;71.35;96957.48;109526;1268;22813;31
2022/09/14 11:25:02;;;;;;;7.60;4.90;;;;;;;19.19;71.32;96959.30;109283;1269;22553;-92
2022/09/14 11:27:56;;;;;;;5.90;4.20;;;;;;;19.14;71.59;96952.77;109554;1270;22508;31
2022/09/14 11:33:45;;;;;;;7.50;5.40;;;;;;;19.00;72.73;96945.95;109473;1269;22887;-92
2022/09/14 11:39:38;;;;;;;7.10;4.60;;;;;;;18.86;72.57;96944.51;107889;1268;22915;31
2022/09/14 11:42:12;;;;;;;9.50;4.20;;;;;;;18.67;73.50;96925.37;109482;1268;22567;-85
2022/09/14 11:44:46;;;;;;;6.90;4.20;;;;;;;18.68;74.28;96945.79;109529;1268;22429;-84
2022/09/14 11:47:17;;;;;;;8.10;4.60;;;;;;;18.61;74.90;96945.63;109521;1281;22552;-89
2022/09/14 11:52:35;;;;;;;8.00;5.20;;;;;;;18.31;75.93;96947.50;109309;1268;22579;-87
2022/09/14 11:55:09;;;;;;;5.20;4.20;;;;;;;18.20;76.78;96946.91;109536;1268;22550;-89
2022/09/14 11:57:37;;;;;;;;;;;;;;;18.12;77.16;96951.55;109384;1268;22530;-86
2022/09/14 12:00:22;;;;;;;9.40;5.60;;;;;;;17.97;77.41;96948.66;109809;1277;22402;-80
2022/09/14 12:03:14;;;;;;;6.40;4.90;;;;;;;17.90;77.62;96951.69;109556;1268;22503;-91
2022/09/14 12:05:43;;;;;;;8.10;5.50;;;;;;;17.92;78.78;96958.01;109472;1268;22654;-90
2022/09/14 12:08:30;;;;;;;6.30;5.20;;;;;;;17.87;79.98;96960.44;109290;1270;22549;-93
2022/09/14 12:11:09;;;;;;;9.30;6.20;;;;;;;17.73;79.96;96959.69;108878;1279;22882;-91
2022/09/14 12:13:36;;;;;;;8.00;6.20;;;;;;;17.62;80.56;96962.40;108622;1280;24081;-92
2022/09/14 12:16:07;;;;;;;7.50;6.00;;;;;;;17.57;81.42;96961.47;108677;1280;22563;-90
2022/09/14 12:18:37;;;;;;;8.80;5.90;;;;;;;17.55;82.19;96964.47;108939;1280;22519;-91
2022/09/14 12:21:24;;;;;;;8.70;6.90;;;;;;;17.51;83.18;96963.73;109267;1268;24870;-94
2022/09/14 12:23:56;;;;;;;8.00;6.20;;;;;;;17.41;82.82;96963.96;109495;1277;24322;-88
2022/09/14 12:26:34;;;;;;;8.20;6.60;;;;;;;17.38;84.35;96963.84;108942;1277;22684;-93
2022/09/14 12:31:49;;;;;;;;;;;;;;;17.23;84.77;96966.48;108523;1281;23239;-88
2022/09/14 12:34:20;;;;;;;7.10;5.70;;;;;;;17.20;85.64;96966.59;108914;1281;24068;-93
2022/09/14 12:36:49;;;;;;;8.20;6.70;;;;;;;17.15;86.66;96969.00;108790;1281;22735;-91
2022/09/14 12:39:24;;;;;;;7.50;6.30;;;;;;;17.08;86.63;96967.80;109041;1281;22549;-91
2022/09/14 12:41:52;;;;;;;6.90;5.90;;;;;;;17.05;86.88;96960.20;108562;1281;22775;-91
2022/09/14 12:44:35;;;;;;;8.40;5.60;;;;;;;17.02;87.27;96956.95;108627;1281;22549;-92
2022/09/14 12:47:27;;;;;;;7.50;6.30;;;;;;;16.97;86.71;96956.80;108885;1281;22554;-91
2022/09/14 12:50:11;;;;;;;6.60;5.40;;;;;;;16.95;87.89;96960.57;108664;1281;22714;-92